| time (UTC) | temp F | wind direction | speed MPH | gust MPH | rain 1hr in | rain 24hr in | rain mn in | humidity % | barometer mb |
| 20260901090017 | 69 | 161 | 1.0 | 4.0 | 0.00 | 0.70 | 0.00 | 86 | 1012.0 |
| 20260901084515 | 70 | 227 | 0.0 | 3.0 | 0.00 | 0.70 | 0.00 | 82 | 1012.1 |
| 20260901083022 | 70 | 213 | 0.0 | 2.0 | 0.00 | 0.70 | 0.00 | 80 | 1012.1 |
| 20260901081517 | 69 | 211 | 1.0 | 3.0 | 0.00 | 0.70 | 0.00 | 83 | 1012.1 |
| 20260901080011 | 69 | 221 | 0.0 | 0.0 | 0.00 | 0.70 | 0.00 | 86 | 1012.2 |
| 20260901074509 | 70 | 88 | 0.0 | 0.0 | 0.00 | 0.70 | 0.00 | 85 | 1012.1 |
| 20260901073006 | 71 | 88 | 0.0 | 0.0 | 0.00 | 0.70 | 0.00 | 80 | 1012.2 |
| 20260901071505 | 72 | 88 | 0.0 | 0.0 | 0.00 | 0.70 | 0.00 | 79 | 1012.2 |
| 20260901070002 | 72 | 88 | 0.0 | 0.0 | 0.00 | 0.70 | 0.00 | 79 | 1012.1 |
| 20260901064503 | 71 | 88 | 0.0 | 0.0 | 0.00 | 0.70 | 0.00 | 81 | 1012.2 |
| 20260901063001 | 71 | 88 | 0.0 | 1.0 | 0.00 | 0.70 | 0.00 | 82 | 1012.3 |
| 20260901061601 | 72 | 88 | 0.0 | 0.0 | 0.00 | 0.70 | 0.00 | 79 | 1012.4 |
| 20260901060028 | 72 | 88 | 0.0 | 0.0 | 0.00 | 0.70 | 0.00 | 81 | 1012.3 |
| 20260901054529 | 72 | 88 | 0.0 | 1.0 | 0.00 | 0.70 | 0.00 | 78 | 1012.2 |
| 20260901053025 | 72 | 88 | 0.0 | 1.0 | 0.00 | 0.70 | 0.00 | 82 | 1012.0 |
| 20260901051522 | 72 | 91 | 0.0 | 1.0 | 0.00 | 0.70 | 0.00 | 81 | 1012.2 |
| 20260901050021 | 72 | 90 | 0.0 | 1.0 | 0.00 | 0.70 | 0.00 | 80 | 1012.2 |
| 20260901044520 | 72 | 81 | 0.0 | 2.0 | 0.00 | 0.70 | 0.00 | 79 | 1012.2 |
| 20260901043021 | 73 | 196 | 0.0 | 1.0 | 0.00 | 0.70 | 0.00 | 80 | 1012.1 |
| 20260901041513 | 74 | 175 | 0.0 | 0.0 | 0.00 | 0.70 | 0.00 | 78 | 1012.3 |
| 20260901040011 | 74 | 137 | 0.0 | 1.0 | 0.00 | 0.70 | 0.70 | 78 | 1012.0 |
| 20260901034514 | 75 | 109 | 2.0 | 8.0 | 0.00 | 0.70 | 0.70 | 75 | 1011.9 |
| 20260901033011 | 75 | 167 | 3.0 | 8.0 | 0.00 | 0.70 | 0.70 | 71 | 1011.7 |
| 20260901031508 | 75 | 205 | 3.0 | 8.0 | 0.00 | 0.70 | 0.70 | 72 | 1011.3 |
| 20260901030008 | 74 | 203 | 0.0 | 3.0 | 0.00 | 0.70 | 0.70 | 74 | 1011.0 |
| 20260901024507 | 74 | 136 | 0.0 | 1.0 | 0.00 | 0.70 | 0.70 | 81 | 1010.7 |
| 20260901023024 | 75 | 80 | 0.0 | 3.0 | 0.00 | 0.70 | 0.70 | 79 | 1010.7 |
| 20260901021511 | 75 | 144 | 0.0 | 0.0 | 0.00 | 0.70 | 0.70 | 73 | 1010.5 |
| 20260901020004 | 75 | 144 | 0.0 | 0.0 | 0.00 | 0.70 | 0.70 | 76 | 1010.1 |
| 20260901014503 | 76 | 218 | 0.0 | 0.0 | 0.00 | 0.70 | 0.70 | 75 | 1009.7 |
| 20260901013107 | 76 | 219 | 0.0 | 0.0 | 0.00 | 0.70 | 0.70 | 77 | 1009.6 |
| 20260901011600 | 77 | 219 | 0.0 | 0.0 | 0.00 | 0.70 | 0.70 | 74 | 1009.5 |
| 20260901010104 | 77 | 232 | 0.0 | 1.0 | 0.00 | 0.70 | 0.70 | 71 | 1009.5 |
| 20260901004559 | 78 | 240 | 0.0 | 0.0 | 0.00 | 0.70 | 0.70 | 68 | 1009.4 |
| 20260901003058 | 79 | 240 | 0.0 | 0.0 | 0.00 | 0.70 | 0.70 | 66 | 1009.4 |
| 20260901001557 | 79 | 242 | 0.0 | 2.0 | 0.00 | 0.70 | 0.70 | 64 | 1009.2 |
| 20260901000100 | 81 | 278 | 0.0 | 1.0 | 0.00 | 0.70 | 0.70 | 64 | 1009.4 |
| 20260831234556 | 80 | 235 | 1.0 | 5.0 | 0.00 | 0.70 | 0.70 | 63 | 1009.3 |
| 20260831233056 | 79 | 115 | 0.0 | 3.0 | 0.00 | 0.70 | 0.70 | 63 | 1009.4 |
| 20260831231531 | 77 | 84 | 2.0 | 5.0 | 0.00 | 0.70 | 0.70 | 71 | 1009.3 |
| 20260831230036 | 75 | 60 | 4.0 | 9.0 | 0.00 | 0.70 | 0.70 | 76 | 1009.6 |
| 20260831224522 | 73 | 92 | 2.0 | 6.0 | 0.00 | 0.70 | 0.70 | 77 | 1010.1 |
| 20260831223022 | 73 | 77 | 1.0 | 7.0 | 0.00 | 0.70 | 0.70 | 79 | 1010.1 |
| 20260831221521 | 72 | 158 | 4.0 | 8.0 | 0.00 | 0.70 | 0.70 | 85 | 1010.1 |
| 20260831220021 | 71 | 134 | 4.0 | 13.0 | 0.01 | 0.70 | 0.70 | 84 | 1010.6 |
| 20260831214518 | 69 | 92 | 6.0 | 16.0 | 0.03 | 0.70 | 0.70 | 86 | 1010.8 |
| 20260831213017 | 68 | 53 | 1.0 | 8.0 | 0.06 | 0.70 | 0.70 | 89 | 1011.1 |
| 20260831211528 | 68 | 96 | 3.0 | 10.0 | 0.10 | 0.70 | 0.70 | 91 | 1010.7 |
| 20260831210016 | 68 | 108 | 3.0 | 12.0 | 0.14 | 0.69 | 0.69 | 92 | 1011.3 |
| 20260831204514 | 68 | 65 | 1.0 | 5.0 | 0.18 | 0.67 | 0.67 | 94 | 1012.5 |
| 20260831203019 | 68 | 79 | 2.0 | 10.0 | 0.31 | 0.64 | 0.64 | 93 | 1013.1 |
| 20260831201514 | 68 | 91 | 2.0 | 6.0 | 0.27 | 0.60 | 0.60 | 92 | 1013.7 |
| 20260831200010 | 68 | 119 | 0.0 | 2.0 | 0.23 | 0.55 | 0.55 | 92 | 1014.3 |
| 20260831194510 | 68 | 227 | 0.0 | 1.0 | 0.18 | 0.48 | 0.48 | 90 | 1014.2 |
| 20260831193007 | 68 | 153 | 0.0 | 0.0 | 0.03 | 0.33 | 0.33 | 89 | 1014.6 |
| 20260831191506 | 68 | 142 | 0.0 | 1.0 | 0.03 | 0.33 | 0.33 | 89 | 1014.6 |
| 20260831190004 | 69 | 18 | 0.0 | 4.0 | 0.02 | 0.32 | 0.32 | 87 | 1014.3 |
| 20260831184601 | 71 | 325 | 4.0 | 14.0 | 0.00 | 0.30 | 0.30 | 79 | 1014.0 |
| 20260831183059 | 70 | 306 | 3.0 | 10.0 | 0.00 | 0.30 | 0.30 | 80 | 1013.5 |
| 20260831181600 | 72 | 210 | 5.0 | 12.0 | 0.00 | 0.30 | 0.30 | 77 | 1013.7 |
| 20260831180056 | 73 | 282 | 2.0 | 11.0 | 0.00 | 0.30 | 0.30 | 73 | 1012.9 |
| 20260831174553 | 74 | 264 | 5.0 | 14.0 | 0.00 | 0.30 | 0.30 | 73 | 1013.1 |
| 20260831173050 | 77 | 264 | 5.0 | 11.0 | 0.00 | 0.30 | 0.30 | 68 | 1012.6 |
| 20260831171549 | 77 | 32 | 4.0 | 9.0 | 0.00 | 0.30 | 0.30 | 69 | 1012.3 |
| 20260831170047 | 77 | 310 | 3.0 | 10.0 | 0.00 | 0.30 | 0.30 | 71 | 1012.0 |
| 20260831164543 | 80 | 14 | 2.0 | 12.0 | 0.00 | 0.30 | 0.30 | 61 | 1011.3 |
| 20260831163042 | 81 | 93 | 3.0 | 11.0 | 0.00 | 0.30 | 0.30 | 55 | 1010.9 |
| 20260831161540 | 79 | 100 | 5.0 | 17.0 | 0.00 | 0.30 | 0.30 | 56 | 1010.5 |
| 20260831160042 | 78 | 111 | 6.0 | 16.0 | 0.00 | 0.30 | 0.30 | 58 | 1010.6 |
| 20260831154538 | 77 | 81 | 8.0 | 14.0 | 0.00 | 0.30 | 0.30 | 60 | 1010.5 |
| 20260831153037 | 76 | 125 | 0.0 | 5.0 | 0.00 | 0.30 | 0.30 | 77 | 1010.7 |
| 20260831151538 | 73 | 88 | 0.0 | 6.0 | 0.00 | 0.30 | 0.30 | 84 | 1010.9 |
| 20260831150036 | 71 | 207 | 5.0 | 10.0 | 0.00 | 0.30 | 0.30 | 86 | 1010.8 |
| 20260831144536 | 71 | 207 | 3.0 | 11.0 | 0.00 | 0.30 | 0.30 | 89 | 1010.3 |
| 20260831143006 | 70 | 182 | 4.0 | 9.0 | 0.00 | 0.30 | 0.30 | 90 | 1010.0 |
| 20260831141505 | 70 | 217 | 1.0 | 4.0 | 0.00 | 0.30 | 0.30 | 91 | 1009.9 |
| 20260831140002 | 70 | 222 | 1.0 | 3.0 | 0.00 | 0.30 | 0.30 | 92 | 1009.9 |
| 20260831134502 | 69 | 213 | 0.0 | 3.0 | 0.00 | 0.30 | 0.30 | 91 | 1010.0 |
| 20260831133002 | 69 | 99 | 2.0 | 6.0 | 0.00 | 0.30 | 0.30 | 92 | 1010.0 |
| 20260831131502 | 68 | 134 | 0.0 | 2.0 | 0.04 | 0.30 | 0.30 | 92 | 1010.2 |
| 20260831130110 | 68 | 335 | 0.0 | 5.0 | 0.20 | 0.30 | 0.30 | 91 | 1010.2 |
| 20260831124557 | 68 | 30 | 0.0 | 4.0 | 0.27 | 0.30 | 0.30 | 91 | 1010.6 |
| 20260831123054 | 68 | 10 | 4.0 | 9.0 | 0.30 | 0.30 | 0.30 | 90 | 1010.6 |
| 20260831121552 | 69 | 329 | 1.0 | 4.0 | 0.26 | 0.26 | 0.26 | 90 | 1010.8 |
| 20260831120047 | 69 | 233 | 0.0 | 7.0 | 0.10 | 0.10 | 0.10 | 89 | 1010.7 |
| 20260831114543 | 71 | 277 | 3.0 | 16.0 | 0.03 | 0.03 | 0.03 | 83 | 1009.6 |
| 20260831113039 | 74 | 221 | 8.0 | 14.0 | 0.00 | 0.00 | 0.00 | 72 | 1009.0 |
| 20260831111534 | 80 | 235 | 4.0 | 10.0 | 0.00 | 0.00 | 0.00 | 55 | 1008.5 |
| 20260831110037 | 80 | 159 | 0.0 | 4.0 | 0.00 | 0.00 | 0.00 | 56 | 1008.2 |
| 20260831104537 | 81 | 145 | 3.0 | 8.0 | 0.00 | 0.00 | 0.00 | 55 | 1007.5 |
| 20260831103031 | 81 | 159 | 2.0 | 5.0 | 0.00 | 0.00 | 0.00 | 53 | 1007.3 |
| 20260831101534 | 81 | 153 | 4.0 | 8.0 | 0.00 | 0.00 | 0.00 | 53 | 1007.3 |
| 20260831100027 | 81 | 166 | 7.0 | 15.0 | 0.00 | 0.00 | 0.00 | 52 | 1007.1 |
| 20260831094527 | 81 | 169 | 7.0 | 17.0 | 0.00 | 0.00 | 0.00 | 53 | 1007.1 |
| 20260831093025 | 81 | 156 | 4.0 | 9.0 | 0.00 | 0.00 | 0.00 | 56 | 1007.1 |
| 20260831091524 | 80 | 239 | 1.0 | 3.0 | 0.00 | 0.00 | 0.00 | 57 | 1007.3 |